Time;durP1;ratioP1;P1;durP2;ratioP2;P2;SDS_P1;SDS_P2;PMS_P1;PMS_P2;Temp;Humidity;BMP_temperature;BMP_pressure;BME280_temperature;BME280_humidity;BME280_pressure;Samples;Min_cycle;Max_cycle;Signal;HPM_P1;HPM_P2
2024/01/13 00:00:09;;;;;;;30.70;19.80;;;;;;;-2.52;100.00;99420.91;109554;1251;58614;-73
2024/01/13 00:02:36;;;;;;;28.90;20.00;;;;;;;-2.53;100.00;99426.83;109368;1252;66038;-73
2024/01/13 00:05:02;;;;;;;29.90;20.00;;;;;;;-2.53;100.00;99430.30;109532;1251;60841;-73
2024/01/13 00:07:29;;;;;;;29.00;18.10;;;;;;;-2.53;100.00;99428.21;109496;1252;64072;-74
2024/01/13 00:09:56;;;;;;;29.90;20.40;;;;;;;-2.53;100.00;99426.65;109134;1252;58252;-73
2024/01/13 00:12:22;;;;;;;27.80;19.30;;;;;;;-2.54;100.00;99419.19;108773;1252;1003059;-73
2024/01/13 00:14:51;;;;;;;18.80;13.50;;;;;;;-2.54;100.00;99419.19;109522;1251;66249;-73
2024/01/13 00:17:17;;;;;;;32.00;21.50;;;;;;;-2.56;100.00;99417.11;109544;1253;61996;-73
2024/01/13 00:19:44;;;;;;;29.50;19.10;;;;;;;-2.57;100.00;99418.52;109340;1253;65055;-73
2024/01/13 00:22:28;;;;;;;29.00;19.50;;;;;;;-2.57;100.00;99418.34;109496;1252;58480;-73
2024/01/13 00:24:54;;;;;;;27.30;18.70;;;;;;;-2.57;100.00;99414.34;109510;1252;58285;-73
2024/01/13 00:27:21;;;;;;;29.90;20.00;;;;;;;-2.57;100.00;99412.09;109497;1255;65119;-75
2024/01/13 00:29:47;;;;;;;25.20;16.30;;;;;;;-2.57;100.00;99410.17;109343;1253;60058;-74
2024/01/13 00:32:14;;;;;;;28.90;18.70;;;;;;;-2.57;100.00;99405.65;109497;1252;65269;-73
2024/01/13 00:34:40;;;;;;;26.00;17.60;;;;;;;-2.57;100.00;99402.34;109490;1252;58137;-74
2024/01/13 00:37:08;;;;;;;27.60;19.20;;;;;;;-2.56;100.00;99399.89;109523;1251;58578;-73
2024/01/13 00:39:34;;;;;;;25.80;17.40;;;;;;;-2.56;100.00;99403.02;108751;1252;1003131;-72
2024/01/13 00:42:01;;;;;;;26.90;18.80;;;;;;;-2.56;100.00;99400.06;109502;1253;58681;-72
2024/01/13 00:44:28;;;;;;;27.10;19.50;;;;;;;-2.56;100.00;99396.77;109513;1252;58242;-74
2024/01/13 00:46:54;;;;;;;26.20;17.70;;;;;;;-2.56;100.00;99395.02;109492;1253;58512;-73
2024/01/13 00:49:21;;;;;;;25.50;17.20;;;;;;;-2.56;100.00;99398.15;109467;1252;58216;-73
2024/01/13 00:51:48;;;;;;;30.10;20.20;;;;;;;-2.57;100.00;99393.29;109519;1252;58215;-74
2024/01/13 00:54:14;;;;;;;27.00;20.20;;;;;;;-2.57;100.00;99392.08;109487;1252;59915;-74
2024/01/13 00:56:41;;;;;;;28.10;20.00;;;;;;;-2.57;100.00;99391.91;109535;1253;65072;-72
2024/01/13 00:59:07;;;;;;;27.20;19.60;;;;;;;-2.57;100.00;99389.64;109466;1253;58185;-72
2024/01/13 01:01:34;;;;;;;27.10;19.60;;;;;;;-2.57;100.00;99391.02;109493;1251;58389;-73
2024/01/13 01:04:01;;;;;;;28.30;20.90;;;;;;;-2.57;100.00;99391.04;108370;1252;1002704;-73
2024/01/13 01:06:28;;;;;;;27.10;18.80;;;;;;;-2.58;100.00;99384.95;108415;1253;1003084;-72
2024/01/13 01:08:54;;;;;;;24.60;19.00;;;;;;;-2.57;100.00;99387.04;109488;1253;65016;-73
2024/01/13 01:11:21;;;;;;;25.20;19.60;;;;;;;-2.57;100.00;99383.03;109486;1253;58312;-73
2024/01/13 01:13:47;;;;;;;26.10;19.30;;;;;;;-2.57;100.00;99382.86;109494;1252;58070;-74
2024/01/13 01:16:14;;;;;;;24.40;17.10;;;;;;;-2.57;100.00;99384.94;109529;1251;66280;-73
2024/01/13 01:18:41;;;;;;;26.70;19.80;;;;;;;-2.56;100.00;99388.59;109501;1253;60304;-73
2024/01/13 01:21:07;;;;;;;27.30;18.70;;;;;;;-2.56;100.00;99383.02;109517;1252;64007;-72
2024/01/13 01:23:34;;;;;;;25.40;18.40;;;;;;;-2.56;100.00;99376.75;109481;1253;58161;-72
2024/01/13 01:26:00;;;;;;;27.00;19.70;;;;;;;-2.57;100.00;99373.45;109544;1252;58390;-73
2024/01/13 01:28:27;;;;;;;26.60;20.10;;;;;;;-2.57;100.00;99370.15;109327;1252;65441;-72
2024/01/13 01:30:54;;;;;;;26.70;19.20;;;;;;;-2.56;100.00;99368.59;109534;1253;60169;-73
2024/01/13 01:33:21;;;;;;;24.40;18.20;;;;;;;-2.56;100.00;99364.23;109521;1252;65025;-73
2024/01/13 01:35:48;;;;;;;22.70;17.20;;;;;;;-2.55;100.00;99355.55;109490;1251;58171;-74
2024/01/13 01:38:14;;;;;;;22.80;18.80;;;;;;;-2.55;100.00;99353.27;109540;1253;58278;-72
2024/01/13 01:40:41;;;;;;;23.50;18.80;;;;;;;-2.56;100.00;99352.92;109442;1253;65368;-73
2024/01/13 01:43:08;;;;;;;22.10;16.30;;;;;;;-2.55;100.00;99351.00;109369;1253;59903;-72
2024/01/13 01:45:35;;;;;;;24.80;18.50;;;;;;;-2.54;100.00;99347.52;109482;1253;65102;-73
2024/01/13 01:48:06;;;;;;;22.40;15.70;;;;;;;-2.53;100.00;99342.64;109451;1252;58397;-72
2024/01/13 01:50:33;;;;;;;21.10;16.30;;;;;;;-2.53;100.00;99342.80;109558;1252;58139;-72
2024/01/13 01:53:00;;;;;;;20.50;16.60;;;;;;;-2.53;100.00;99337.41;109472;1252;66175;-72
2024/01/13 01:55:26;;;;;;;20.70;17.10;;;;;;;-2.52;100.00;99336.71;109516;1252;60226;-72
2024/01/13 01:57:54;;;;;;;18.90;16.70;;;;;;;-2.52;100.00;99332.36;109514;1251;65043;-73
2024/01/13 02:00:21;;;;;;;18.20;15.70;;;;;;;-2.52;100.00;99326.61;108756;1253;1002437;-72
2024/01/13 02:02:47;;;;;;;19.80;16.00;;;;;;;-2.51;100.00;99326.96;109252;1251;59181;-74
2024/01/13 02:05:15;;;;;;;18.10;13.80;;;;;;;-2.51;100.00;99325.92;109467;1252;66303;-73
2024/01/13 02:07:41;;;;;;;20.00;14.60;;;;;;;-2.52;100.00;99314.62;109513;1252;61076;-73
2024/01/13 02:10:09;;;;;;;20.20;16.30;;;;;;;-2.52;100.00;99313.05;109522;1253;65110;-73
2024/01/13 02:12:36;;;;;;;17.60;14.40;;;;;;;-2.51;100.00;99306.09;109146;1252;58183;-73
2024/01/13 02:15:03;;;;;;;16.50;13.70;;;;;;;-2.50;100.00;99301.90;109424;1252;58263;-72
2024/01/13 02:17:30;;;;;;;18.50;14.90;;;;;;;-2.50;100.00;99300.51;109472;1252;66490;-73
2024/01/13 02:19:59;;;;;;;15.90;13.50;;;;;;;-2.49;100.00;99297.55;109460;1251;58869;-73
2024/01/13 02:22:25;;;;;;;16.00;13.10;;;;;;;-2.49;100.00;99295.10;109478;1255;65118;-74
2024/01/13 02:24:52;;;;;;;18.80;14.90;;;;;;;-2.48;100.00;99297.54;109501;1253;58568;-74
2024/01/13 02:27:19;;;;;;;17.30;13.30;;;;;;;-2.48;100.00;99294.05;108712;1252;1002412;-72
2024/01/13 02:29:45;;;;;;;14.80;11.30;;;;;;;-2.47;100.00;99297.35;108723;1253;1003196;-72
2024/01/13 02:32:12;;;;;;;15.60;12.40;;;;;;;-2.47;100.00;99290.92;109546;1254;60268;-74
2024/01/13 02:34:38;;;;;;;15.90;12.70;;;;;;;-2.46;100.00;99287.27;109544;1253;65142;-73
2024/01/13 02:37:05;;;;;;;15.40;12.90;;;;;;;-2.46;100.00;99288.12;109332;1253;58196;-73
2024/01/13 02:39:31;;;;;;;15.80;13.50;;;;;;;-2.45;100.00;99287.95;109528;1252;58161;-73
2024/01/13 02:41:58;;;;;;;17.30;13.80;;;;;;;-2.45;100.00;99283.77;109522;1255;65139;-73
2024/01/13 02:44:25;;;;;;;16.50;14.10;;;;;;;-2.44;100.00;99284.29;109511;1253;60184;-73
2024/01/13 02:46:51;;;;;;;16.40;14.70;;;;;;;-2.44;100.00;99285.33;109480;1252;64994;-72
2024/01/13 02:49:18;;;;;;;18.40;14.50;;;;;;;-2.43;100.00;99280.95;109492;1254;58185;-73
2024/01/13 02:51:45;;;;;;;16.10;13.30;;;;;;;-2.42;100.00;99279.21;109516;1253;58169;-73
2024/01/13 02:54:11;;;;;;;16.70;14.10;;;;;;;-2.42;100.00;99275.56;109514;1253;66476;-73
2024/01/13 02:56:38;;;;;;;17.20;15.00;;;;;;;-2.41;100.00;99269.13;109520;1252;61153;-73
2024/01/13 02:59:04;;;;;;;16.80;14.10;;;;;;;-2.41;100.00;99271.04;109490;1254;65263;-72
2024/01/13 03:01:31;;;;;;;17.90;14.40;;;;;;;-2.41;100.00;99272.77;109464;1255;58144;-74
2024/01/13 03:03:57;;;;;;;16.00;13.40;;;;;;;-2.39;100.00;99273.61;109520;1253;58371;-73
2024/01/13 03:06:25;;;;;;;16.80;13.30;;;;;;;-2.37;100.00;99273.77;109496;1253;64822;-73
2024/01/13 03:08:53;;;;;;;18.50;14.30;;;;;;;-2.36;100.00;99271.33;109457;1253;60217;-72
2024/01/13 03:11:19;;;;;;;16.80;13.30;;;;;;;-2.34;100.00;99274.27;108746;1253;1002784;-73
2024/01/13 03:13:46;;;;;;;16.00;13.40;;;;;;;-2.32;100.00;99271.10;109453;1253;58742;-73
2024/01/13 03:16:14;;;;;;;17.70;12.80;;;;;;;-2.30;100.00;99267.77;109498;1254;58216;-72
2024/01/13 03:18:41;;;;;;;12.80;11.00;;;;;;;-2.28;100.00;99268.11;109278;1253;66288;-72
2024/01/13 03:21:11;;;;;;;14.20;12.70;;;;;;;-2.26;100.00;99268.96;109504;1253;59742;-72
2024/01/13 03:23:38;;;;;;;;;;;;;;;-2.25;100.00;99269.81;109508;1254;64970;-73
2024/01/13 03:26:05;;;;;;;14.80;12.20;;;;;;;-2.24;100.00;99262.66;109519;1251;58181;-73
2024/01/13 03:28:31;;;;;;;16.50;13.40;;;;;;;-2.23;100.00;99258.47;109461;1254;58184;-73
2024/01/13 03:30:58;;;;;;;14.70;12.60;;;;;;;-2.22;100.00;99260.89;109468;1253;66191;-74
2024/01/13 03:33:25;;;;;;;15.40;12.00;;;;;;;-2.21;100.00;99254.97;109454;1254;61153;-74
2024/01/13 03:35:51;;;;;;;14.70;12.50;;;;;;;-2.19;100.00;99251.14;109461;1254;64966;-73
2024/01/13 03:38:18;;;;;;;18.40;14.00;;;;;;;-2.18;100.00;99252.52;109488;1254;58304;-73
2024/01/13 03:40:44;;;;;;;17.10;13.40;;;;;;;-2.17;100.00;99251.10;109465;1252;58273;-73
2024/01/13 03:43:11;;;;;;;15.00;11.70;;;;;;;-2.16;100.00;99250.56;109535;1253;65099;-72
2024/01/13 03:45:38;;;;;;;14.20;11.50;;;;;;;-2.13;100.00;99250.02;109461;1252;60969;-72
2024/01/13 03:48:05;;;;;;;15.80;12.40;;;;;;;-2.12;100.00;99245.81;108684;1253;1002139;-73
2024/01/13 03:50:32;;;;;;;14.80;12.50;;;;;;;-2.11;100.00;99237.80;109443;1254;58212;-73
2024/01/13 03:52:59;;;;;;;16.20;12.00;;;;;;;-2.10;100.00;99234.14;109164;1253;58367;-73
2024/01/13 03:55:25;;;;;;;16.20;13.20;;;;;;;-2.10;100.00;99233.27;109449;1253;65971;-73
2024/01/13 03:57:52;;;;;;;16.30;13.30;;;;;;;-2.10;100.00;99226.13;109498;1253;61075;-73
2024/01/13 04:00:19;;;;;;;16.40;11.80;;;;;;;-2.10;100.00;99225.96;109311;1252;64044;-73
2024/01/13 04:02:46;;;;;;;16.90;12.90;;;;;;;-2.10;100.00;99226.47;109489;1252;58202;-73
2024/01/13 04:05:12;;;;;;;15.70;11.70;;;;;;;-2.08;100.00;99219.84;109430;1254;58396;-74
2024/01/13 04:07:39;;;;;;;14.20;11.20;;;;;;;-2.07;100.00;99215.84;109480;1253;66146;-74
2024/01/13 04:10:06;;;;;;;15.80;11.50;;;;;;;-2.07;100.00;99219.31;109498;1253;60740;-73
2024/01/13 04:12:33;;;;;;;19.50;13.30;;;;;;;-2.07;100.00;99217.23;109452;1252;64186;-71
2024/01/13 04:14:59;;;;;;;15.70;11.80;;;;;;;-2.06;100.00;99216.52;109448;1255;58176;-73
2024/01/13 04:17:26;;;;;;;15.60;12.60;;;;;;;-2.05;100.00;99215.46;109513;1254;58143;-74
2024/01/13 04:19:53;;;;;;;14.20;10.50;;;;;;;-2.04;100.00;99216.14;109458;1254;65143;-72
2024/01/13 04:22:19;;;;;;;18.00;13.50;;;;;;;-2.04;100.00;99215.08;109450;1254;60536;-72
2024/01/13 04:24:46;;;;;;;15.20;10.50;;;;;;;-2.03;100.00;99212.98;109500;1251;64023;-73
2024/01/13 04:27:12;;;;;;;16.50;12.00;;;;;;;-2.01;100.00;99210.35;109464;1253;58191;-73
2024/01/13 04:29:39;;;;;;;15.20;11.80;;;;;;;-2.00;100.00;99216.10;109446;1252;58565;-72
2024/01/13 04:32:06;;;;;;;14.60;11.00;;;;;;;-1.99;100.00;99213.11;109453;1253;66646;-72
2024/01/13 04:34:32;;;;;;;13.00;10.50;;;;;;;-1.99;100.00;99214.16;109452;1253;60091;-72
2024/01/13 04:37:00;;;;;;;15.70;11.20;;;;;;;-1.98;100.00;99213.61;109456;1254;63993;-72
2024/01/13 04:39:27;;;;;;;16.00;11.10;;;;;;;-1.97;100.00;99214.48;109486;1253;58445;-72
2024/01/13 04:41:54;;;;;;;15.90;12.20;;;;;;;-1.96;100.00;99214.64;109130;1254;58305;-73
2024/01/13 04:44:20;;;;;;;14.30;11.10;;;;;;;-1.95;100.00;99217.41;109497;1252;66599;-72
2024/01/13 04:46:47;;;;;;;17.20;11.90;;;;;;;-1.93;100.00;99215.65;109464;1252;61002;-73
2024/01/13 04:49:14;;;;;;;16.20;11.30;;;;;;;-1.91;100.00;99212.49;109413;1254;64025;-72
2024/01/13 04:51:40;;;;;;;14.50;10.10;;;;;;;-1.89;100.00;99213.69;109427;1254;59699;-71
2024/01/13 04:54:07;;;;;;;15.60;10.50;;;;;;;-1.88;100.00;99207.39;109486;1253;58054;-73
2024/01/13 04:56:33;;;;;;;14.60;10.30;;;;;;;-1.87;100.00;99205.48;109489;1252;66218;-73
2024/01/13 04:59:00;;;;;;;14.70;10.70;;;;;;;-1.85;100.00;99207.35;109484;1253;60111;-74
2024/01/13 05:01:27;;;;;;;13.20;9.50;;;;;;;-1.84;100.00;99203.34;109338;1254;65215;-73
2024/01/13 05:03:53;;;;;;;14.40;10.00;;;;;;;-1.83;100.00;99197.77;109269;1253;58122;-74
2024/01/13 05:06:20;;;;;;;14.70;11.10;;;;;;;-1.83;100.00;99195.85;109402;1252;58257;-73
2024/01/13 05:08:46;;;;;;;14.90;11.10;;;;;;;-1.83;100.00;99191.66;109474;1252;66263;-73
2024/01/13 05:11:13;;;;;;;16.20;12.20;;;;;;;-1.83;100.00;99192.88;109469;1253;60177;-73
2024/01/13 05:13:40;;;;;;;16.30;11.50;;;;;;;-1.82;100.00;99187.11;109472;1254;64982;-73
2024/01/13 05:16:06;;;;;;;15.00;11.10;;;;;;;-1.81;100.00;99181.19;109413;1254;58148;-72
2024/01/13 05:18:33;;;;;;;17.40;11.80;;;;;;;-1.80;100.00;99182.02;109457;1252;58765;-73
2024/01/13 05:20:59;;;;;;;16.20;10.90;;;;;;;-1.78;100.00;99182.50;109469;1254;66400;-72
2024/01/13 05:23:26;;;;;;;15.30;11.40;;;;;;;-1.74;100.00;99179.69;109451;1253;60219;-73
2024/01/13 05:25:52;;;;;;;18.40;12.40;;;;;;;-1.71;100.00;99170.94;109475;1252;63977;-73
2024/01/13 05:28:19;;;;;;;13.60;10.60;;;;;;;-1.71;100.00;99169.20;109431;1252;58226;-74
2024/01/13 05:30:46;;;;;;;14.50;11.70;;;;;;;-1.71;100.00;99158.58;109465;1254;58360;-73
2024/01/13 05:33:12;;;;;;;18.60;11.90;;;;;;;-1.71;100.00;99152.30;109455;1251;65982;-73
2024/01/13 05:35:39;;;;;;;16.70;11.70;;;;;;;-1.71;100.00;99158.05;109444;1252;60250;-73
2024/01/13 05:38:06;;;;;;;16.40;11.60;;;;;;;-1.70;100.00;99156.81;108516;1252;1002638;-73
2024/01/13 05:40:32;;;;;;;14.80;10.50;;;;;;;-1.68;100.00;99165.33;109412;1253;58154;-73
2024/01/13 05:42:59;;;;;;;16.00;11.50;;;;;;;-1.66;100.00;99168.09;109351;1251;58374;-73
2024/01/13 05:45:26;;;;;;;14.50;10.00;;;;;;;-1.65;100.00;99169.45;109272;1253;65869;-72
2024/01/13 05:47:53;;;;;;;17.00;11.80;;;;;;;-1.64;100.00;99171.88;109445;1254;60059;-74
2024/01/13 05:50:20;;;;;;;17.80;11.50;;;;;;;-1.63;100.00;99170.12;109252;1254;65066;-73
2024/01/13 05:52:47;;;;;;;15.70;10.60;;;;;;;-1.62;100.00;99170.80;109265;1254;58229;-74
2024/01/13 05:55:13;;;;;;;13.80;10.90;;;;;;;-1.60;100.00;99175.98;109167;1254;58239;-72
2024/01/13 05:57:40;;;;;;;13.60;9.30;;;;;;;-1.58;100.00;99180.48;109284;1254;66206;-73
2024/01/13 06:00:09;;;;;;;14.10;9.40;;;;;;;-1.57;100.00;99178.04;109013;1254;61212;-74
2024/01/13 06:02:35;;;;;;;14.30;10.00;;;;;;;-1.56;100.00;99178.72;108999;1254;64110;-72
2024/01/13 06:05:02;;;;;;;14.70;9.80;;;;;;;-1.55;100.00;99180.80;109264;1254;58430;-73
2024/01/13 06:07:29;;;;;;;13.80;9.40;;;;;;;-1.52;100.00;99180.93;108274;1254;1002367;-72
2024/01/13 06:09:55;;;;;;;15.50;10.60;;;;;;;-1.50;100.00;99178.30;109314;1254;65177;-73
2024/01/13 06:12:22;;;;;;;16.90;11.50;;;;;;;-1.49;100.00;99172.17;109319;1254;61316;-73
2024/01/13 06:14:49;;;;;;;16.60;10.40;;;;;;;-1.48;100.00;99168.49;109285;1254;65098;-73
2024/01/13 06:17:15;;;;;;;15.40;10.90;;;;;;;-1.47;100.00;99174.42;109282;1254;58144;-73
2024/01/13 06:19:42;;;;;;;16.00;11.20;;;;;;;-1.46;100.00;99178.73;109286;1254;58654;-74
2024/01/13 06:22:09;;;;;;;13.50;10.70;;;;;;;-1.45;100.00;99182.91;109143;1254;65267;-72
2024/01/13 06:24:36;;;;;;;13.70;9.20;;;;;;;-1.44;100.00;99174.88;109465;1252;60211;-72
2024/01/13 06:27:02;;;;;;;14.20;10.40;;;;;;;-1.43;100.00;99174.86;109364;1253;65057;-71
2024/01/13 06:29:29;;;;;;;12.80;9.00;;;;;;;-1.43;100.00;99167.89;109420;1253;58238;-73
2024/01/13 06:31:56;;;;;;;13.30;10.30;;;;;;;-1.42;100.00;99164.40;108726;1252;1002854;-72
2024/01/13 06:34:22;;;;;;;13.70;10.90;;;;;;;-1.42;100.00;99163.88;109449;1253;63938;-72
2024/01/13 06:36:49;;;;;;;13.30;10.40;;;;;;;-1.42;100.00;99164.57;109425;1253;61043;-73
2024/01/13 06:39:16;;;;;;;12.00;9.40;;;;;;;-1.40;100.00;99158.10;109431;1253;62450;-73
2024/01/13 06:41:42;;;;;;;18.10;11.20;;;;;;;-1.39;100.00;99150.40;109368;1252;58151;-74
2024/01/13 06:44:09;;;;;;;14.90;10.90;;;;;;;-1.38;100.00;99145.85;109431;1252;58147;-72
2024/01/13 06:46:37;;;;;;;14.10;10.80;;;;;;;-1.37;100.00;99139.40;109272;1253;65447;-74
2024/01/13 06:49:04;;;;;;;15.40;11.00;;;;;;;-1.36;100.00;99134.50;109409;1253;68657;-74
2024/01/13 06:51:31;;;;;;;13.60;10.60;;;;;;;-1.35;100.00;99137.61;109379;1252;65018;-74
2024/01/13 06:53:58;;;;;;;16.10;11.10;;;;;;;-1.33;100.00;99140.38;109170;1253;58277;-74
2024/01/13 06:56:24;;;;;;;17.10;11.80;;;;;;;-1.32;100.00;99137.05;109459;1254;58193;-73
2024/01/13 06:58:51;;;;;;;16.50;11.60;;;;;;;-1.31;100.00;99136.34;109437;1252;66197;-74
2024/01/13 07:01:18;;;;;;;16.30;11.50;;;;;;;-1.29;100.00;99140.33;109461;1252;60154;-75
2024/01/13 07:03:44;;;;;;;13.50;11.30;;;;;;;-1.29;100.00;99142.23;109306;1252;64537;-73
2024/01/13 07:06:11;;;;;;;16.20;12.70;;;;;;;-1.28;100.00;99150.08;109436;1252;58442;-73
2024/01/13 07:08:37;;;;;;;17.00;11.30;;;;;;;-1.28;100.00;99153.73;109430;1252;58092;-74
2024/01/13 07:11:13;;;;;;;17.20;12.30;;;;;;;-1.27;100.00;99156.84;109453;1253;66203;-74
2024/01/13 07:13:44;;;;;;;16.70;12.00;;;;;;;-1.26;100.00;99152.98;109457;1251;59922;-73
2024/01/13 07:16:11;;;;;;;16.80;11.50;;;;;;;-1.25;100.00;99149.83;109412;1252;63997;-72
2024/01/13 07:18:37;;;;;;;20.70;13.90;;;;;;;-1.24;100.00;99152.61;109446;1252;58256;-72
2024/01/13 07:21:05;;;;;;;16.00;11.80;;;;;;;-1.24;100.00;99152.06;109441;1252;58192;-73
2024/01/13 07:23:32;;;;;;;15.00;11.30;;;;;;;-1.22;100.00;99150.30;109448;1252;66216;-74
2024/01/13 07:26:01;;;;;;;19.50;13.80;;;;;;;-1.21;100.00;99146.80;109445;1253;59788;-73
2024/01/13 07:28:27;;;;;;;18.50;13.70;;;;;;;-1.19;100.00;99148.16;109453;1251;65158;-74
2024/01/13 07:30:54;;;;;;;18.30;12.90;;;;;;;-1.17;100.00;99151.61;109437;1251;58186;-74
2024/01/13 07:33:20;;;;;;;16.10;12.40;;;;;;;-1.15;100.00;99151.59;109353;1254;58343;-73
2024/01/13 07:35:47;;;;;;;16.00;11.50;;;;;;;-1.13;100.00;99149.45;109515;1251;65693;-73
2024/01/13 07:38:14;;;;;;;18.00;12.60;;;;;;;-1.10;100.00;99150.80;109539;1251;60218;-72
2024/01/13 07:40:40;;;;;;;14.10;11.00;;;;;;;-1.08;100.00;99156.17;109487;1251;65098;-73
2024/01/13 07:43:07;;;;;;;18.30;12.40;;;;;;;-1.06;100.00;99158.73;109451;1251;58342;-73
2024/01/13 07:45:34;;;;;;;15.60;12.00;;;;;;;-1.04;100.00;99157.66;109457;1251;58634;-74
2024/01/13 07:48:01;;;;;;;15.50;12.00;;;;;;;-1.02;100.00;99153.09;109519;1251;66278;-73
2024/01/13 07:50:28;;;;;;;16.60;12.00;;;;;;;-0.98;100.00;99151.46;109474;1251;60163;-71
2024/01/13 07:52:54;;;;;;;16.70;11.60;;;;;;;-0.96;100.00;99152.81;109488;1251;63790;-74
2024/01/13 07:55:21;;;;;;;15.00;10.60;;;;;;;-0.91;100.00;99152.20;109432;1251;58425;-75
2024/01/13 07:57:47;;;;;;;15.80;11.50;;;;;;;-0.87;100.00;99152.65;109506;1251;58185;-73
2024/01/13 08:00:14;;;;;;;16.20;11.20;;;;;;;-0.83;100.00;99147.36;109490;1251;65256;-74
2024/01/13 08:02:41;;;;;;;19.50;11.90;;;;;;;-0.80;100.00;99147.64;109423;1251;61194;-73
2024/01/13 08:05:07;;;;;;;14.70;11.30;;;;;;;-0.75;100.00;99145.29;109482;1251;64108;-73
2024/01/13 08:07:34;;;;;;;17.30;11.60;;;;;;;-0.70;100.00;99143.62;109449;1251;58549;-74
2024/01/13 08:10:01;;;;;;;14.30;11.80;;;;;;;-0.66;100.00;99141.80;109494;1251;58836;-74
2024/01/13 08:12:28;;;;;;;15.40;11.80;;;;;;;-0.61;100.00;99140.31;109496;1251;65926;-74
2024/01/13 08:14:54;;;;;;;13.80;11.30;;;;;;;-0.58;100.00;99142.00;109498;1251;60222;-75
2024/01/13 08:17:21;;;;;;;12.80;11.10;;;;;;;-0.56;100.00;99144.75;109463;1251;63968;-73
2024/01/13 08:19:48;;;;;;;16.40;12.20;;;;;;;-0.53;100.00;99140.67;109483;1251;58203;-73
2024/01/13 08:22:14;;;;;;;17.70;12.20;;;;;;;-0.51;100.00;99139.93;109393;1251;58186;-74
2024/01/13 08:24:41;;;;;;;16.30;11.80;;;;;;;-0.48;100.00;99138.48;109460;1251;66169;-74
2024/01/13 08:27:07;;;;;;;18.20;12.90;;;;;;;-0.46;100.00;99140.19;109504;1251;60266;-74
2024/01/13 08:29:34;;;;;;;20.00;12.20;;;;;;;-0.43;100.00;99135.75;109503;1251;64016;-73
2024/01/13 08:32:00;;;;;;;16.20;11.00;;;;;;;-0.41;100.00;99132.23;109470;1251;58420;-74
2024/01/13 08:34:27;;;;;;;22.40;12.70;;;;;;;-0.39;100.00;99136.05;109516;1251;58421;-74
2024/01/13 08:36:54;;;;;;;16.90;12.60;;;;;;;-0.38;100.00;99134.10;109433;1251;66234;-73
2024/01/13 08:39:20;;;;;;;18.10;13.30;;;;;;;-0.37;100.00;99133.55;109476;1251;61180;-73
2024/01/13 08:41:47;;;;;;;20.70;12.80;;;;;;;-0.35;100.00;99132.27;109466;1251;63909;-75
2024/01/13 08:44:15;;;;;;;18.00;13.00;;;;;;;-0.32;100.00;99132.23;109429;1251;58199;-74
2024/01/13 08:46:42;;;;;;;20.30;12.80;;;;;;;-0.30;100.00;99129.20;109450;1251;58232;-75
2024/01/13 08:49:08;;;;;;;17.30;11.80;;;;;;;-0.25;100.00;99124.56;109479;1251;66015;-74
2024/01/13 08:51:35;;;;;;;17.50;12.80;;;;;;;-0.20;100.00;99122.72;109495;1251;61026;-73
2024/01/13 08:54:03;;;;;;;15.50;12.00;;;;;;;-0.18;100.00;99116.20;109467;1251;64925;-74
2024/01/13 08:56:29;;;;;;;15.40;11.80;;;;;;;-0.14;100.00;99116.13;109396;1251;58230;-73
2024/01/13 08:58:56;;;;;;;16.70;12.10;;;;;;;-0.10;100.00;99113.95;109448;1251;58453;-74
2024/01/13 09:01:23;;;;;;;15.10;11.20;;;;;;;-0.08;100.00;99114.60;109518;1251;66145;-74
2024/01/13 09:03:49;;;;;;;17.00;12.30;;;;;;;-0.07;100.00;99118.06;109359;1251;60071;-74
2024/01/13 09:06:16;;;;;;;18.70;13.10;;;;;;;-0.07;100.00;99118.41;109478;1251;64030;-73
2024/01/13 09:08:42;;;;;;;16.00;11.90;;;;;;;-0.05;100.00;99116.97;109469;1251;58135;-73
2024/01/13 09:11:09;;;;;;;16.30;11.30;;;;;;;-0.01;100.00;99115.67;109396;1251;58287;-73
2024/01/13 09:13:36;;;;;;;18.50;13.30;;;;;;;0.01;100.00;99121.21;109470;1251;66270;-74
2024/01/13 09:16:03;;;;;;;16.90;11.80;;;;;;;0.02;100.00;99120.13;109516;1251;61104;-74
2024/01/13 09:18:30;;;;;;;20.70;13.90;;;;;;;0.03;100.00;99115.05;109123;1253;65380;-73
2024/01/13 09:20:56;;;;;;;19.60;13.90;;;;;;;0.07;100.00;99109.02;109462;1251;58345;-73
2024/01/13 09:23:23;;;;;;;16.00;12.80;;;;;;;0.09;100.00;99111.06;109435;1251;58223;-74
2024/01/13 09:25:49;;;;;;;18.80;13.00;;;;;;;0.10;100.00;99110.70;109520;1251;66203;-74
2024/01/13 09:28:16;;;;;;;15.50;11.90;;;;;;;0.11;100.00;99108.40;109480;1251;61112;-74
2024/01/13 09:30:42;;;;;;;17.10;13.60;;;;;;;0.12;100.00;99107.52;109486;1251;65035;-75
2024/01/13 09:33:09;;;;;;;17.90;13.50;;;;;;;0.11;100.00;99099.67;109355;1251;58143;-74
2024/01/13 09:35:36;;;;;;;22.00;15.70;;;;;;;0.12;100.00;99092.30;109455;1252;58232;-73
2024/01/13 09:38:02;;;;;;;23.00;15.20;;;;;;;0.12;100.00;99094.94;109492;1251;66151;-74
2024/01/13 09:40:29;;;;;;;19.70;15.00;;;;;;;0.13;100.00;99093.17;109491;1251;61122;-75
2024/01/13 09:43:14;;;;;;;23.70;16.50;;;;;;;0.17;100.00;99091.15;109356;1251;65047;-75
2024/01/13 09:45:44;;;;;;;20.10;14.80;;;;;;;0.23;100.00;99090.67;109478;1251;58117;-72
2024/01/13 09:48:16;;;;;;;20.60;14.40;;;;;;;0.25;100.00;99079.62;109450;1251;58327;-73
2024/01/13 09:50:45;;;;;;;21.10;15.20;;;;;;;0.27;100.00;99074.16;109460;1251;65217;-73
2024/01/13 09:53:23;;;;;;;20.80;14.40;;;;;;;0.30;100.00;99068.99;109476;1251;61068;-73
2024/01/13 09:55:54;;;;;;;23.40;15.60;;;;;;;0.33;100.00;99068.24;109501;1251;65283;-73
2024/01/13 09:58:21;;;;;;;21.80;15.40;;;;;;;0.34;100.00;99074.33;109459;1251;58502;-73
2024/01/13 10:00:49;;;;;;;22.20;15.30;;;;;;;0.34;100.00;99074.51;109414;1251;115909;-74
2024/01/13 10:03:16;;;;;;;21.50;15.70;;;;;;;0.35;100.00;99065.89;109457;1251;66241;-74
2024/01/13 10:05:42;;;;;;;22.30;15.70;;;;;;;0.39;100.00;99058.99;109514;1251;60062;-74
2024/01/13 10:08:10;;;;;;;17.90;14.00;;;;;;;0.39;100.00;99059.52;109487;1251;62767;-74
2024/01/13 10:10:38;;;;;;;18.80;13.50;;;;;;;0.38;100.00;99059.20;109440;1251;58419;-72
2024/01/13 10:13:08;;;;;;;18.50;13.90;;;;;;;0.40;100.00;99057.92;109489;1252;58290;-72
2024/01/13 10:15:34;;;;;;;19.80;13.80;;;;;;;0.41;100.00;99060.71;109304;1251;65500;-72
2024/01/13 10:18:01;;;;;;;19.50;14.90;;;;;;;0.41;100.00;99059.11;109481;1251;59992;-72
2024/01/13 10:20:28;;;;;;;20.90;14.50;;;;;;;0.42;100.00;99048.77;109287;1251;65172;-74
2024/01/13 10:22:55;;;;;;;17.20;13.10;;;;;;;0.40;100.00;99048.98;109463;1251;58342;-73
2024/01/13 10:25:22;;;;;;;18.50;14.70;;;;;;;0.39;100.00;99044.48;109454;1251;58164;-72
2024/01/13 10:27:48;;;;;;;26.30;18.70;;;;;;;0.39;100.00;99043.79;109488;1251;66240;-73
2024/01/13 10:30:15;;;;;;;23.90;16.70;;;;;;;0.41;100.00;99037.98;109525;1251;60199;-73
2024/01/13 10:32:42;;;;;;;25.80;17.10;;;;;;;0.40;100.00;99033.63;109495;1251;65288;-73
2024/01/13 10:35:15;;;;;;;19.50;14.70;;;;;;;0.40;100.00;99032.23;109472;1251;58462;-72
2024/01/13 10:37:42;;;;;;;19.10;14.60;;;;;;;0.41;100.00;99035.88;109472;1251;58146;-73
2024/01/13 10:40:09;;;;;;;25.40;17.80;;;;;;;0.42;100.00;99033.58;109500;1251;66377;-72
2024/01/13 10:42:37;;;;;;;24.50;17.70;;;;;;;0.45;100.00;99027.04;109378;1256;61211;-73
2024/01/13 10:45:09;;;;;;;21.00;16.00;;;;;;;0.46;100.00;99023.33;109455;1251;64050;-74
2024/01/13 10:47:45;;;;;;;20.20;14.80;;;;;;;0.47;100.00;99020.17;109171;1251;58865;-73
2024/01/13 10:50:11;;;;;;;18.50;14.60;;;;;;;0.48;100.00;99022.09;109277;1251;58222;-72
2024/01/13 10:52:50;;;;;;;18.60;13.70;;;;;;;0.48;100.00;99024.35;109529;1251;66263;-73
2024/01/13 10:55:17;;;;;;;20.60;15.30;;;;;;;0.48;100.00;99022.26;109500;1251;61600;-73
2024/01/13 10:57:46;;;;;;;17.30;13.20;;;;;;;0.51;100.00;99021.48;109518;1251;64834;-72
2024/01/13 11:00:13;;;;;;;18.40;13.60;;;;;;;0.55;100.00;99018.57;109401;1251;58236;-73